createdAt,value
2022-11-27T00:00:12.854Z,57.65
2022-11-27T00:02:41.036Z,57.47
2022-11-27T00:05:09.617Z,57.00
2022-11-27T00:07:37.291Z,57.64
2022-11-27T00:10:05.837Z,57.67
2022-11-27T00:12:33.602Z,57.63
2022-11-27T00:15:01.308Z,57.55
2022-11-27T00:17:30.477Z,57.45
2022-11-27T00:19:58.119Z,57.85
2022-11-27T00:22:26.596Z,57.71
2022-11-27T00:24:54.297Z,57.61
2022-11-27T00:27:22.182Z,57.93
2022-11-27T00:29:49.813Z,57.45
2022-11-27T00:32:17.450Z,57.79
2022-11-27T00:34:46.539Z,58.01
2022-11-27T00:37:14.832Z,57.56
2022-11-27T00:39:42.545Z,57.59
2022-11-27T00:42:10.204Z,57.74
2022-11-27T00:44:38.191Z,57.82
2022-11-27T00:47:06.407Z,57.48
2022-11-27T00:49:34.078Z,57.66
2022-11-27T00:52:03.220Z,57.36
2022-11-27T00:54:31.044Z,57.81
2022-11-27T00:57:01.981Z,56.88
2022-11-27T00:59:29.948Z,56.87
2022-11-27T01:01:57.880Z,57.22
2022-11-27T01:04:26.783Z,57.39
2022-11-27T01:06:54.434Z,57.15
2022-11-27T01:09:23.648Z,57.68
2022-11-27T01:11:51.399Z,57.40
2022-11-27T01:14:19.328Z,57.13
2022-11-27T01:16:47.192Z,57.30
2022-11-27T01:19:15.322Z,57.24
2022-11-27T01:21:43.278Z,56.87
2022-11-27T01:24:11.383Z,57.35
2022-11-27T01:26:47.860Z,57.21
2022-11-27T01:29:15.751Z,56.76
2022-11-27T01:31:43.521Z,56.85
2022-11-27T01:34:15.254Z,57.19
2022-11-27T01:36:43.077Z,56.71
2022-11-27T01:39:11.840Z,57.25
2022-11-27T01:41:41.332Z,57.33
2022-11-27T01:44:42.359Z,56.79
2022-11-27T01:47:13.718Z,57.47
2022-11-27T01:49:44.279Z,57.10
2022-11-27T01:52:13.125Z,57.63
2022-11-27T01:54:42.284Z,57.59
2022-11-27T01:57:14.906Z,57.24
2022-11-27T01:59:42.646Z,57.05
2022-11-27T02:02:10.416Z,57.07
2022-11-27T02:04:38.534Z,56.95
2022-11-27T02:07:06.764Z,57.18
2022-11-27T02:09:34.562Z,57.15
2022-11-27T02:12:05.934Z,57.72
2022-11-27T02:14:37.879Z,57.21
2022-11-27T02:17:09.562Z,57.88
2022-11-27T02:19:52.003Z,57.22
2022-11-27T02:22:26.189Z,57.86
2022-11-27T02:24:57.801Z,57.40
2022-11-27T02:27:49.362Z,57.14
2022-11-27T02:30:18.929Z,57.79
2022-11-27T02:32:49.491Z,57.53
2022-11-27T02:35:19.481Z,57.46
2022-11-27T02:37:48.321Z,57.05
2022-11-27T02:40:18.508Z,56.99
2022-11-27T02:42:47.597Z,56.86
2022-11-27T02:45:19.817Z,57.25
2022-11-27T02:47:47.742Z,57.38
2022-11-27T02:50:16.474Z,56.93
2022-11-27T02:52:44.531Z,56.78
2022-11-27T02:55:14.045Z,56.87
2022-11-27T02:57:42.841Z,56.67
2022-11-27T03:00:11.796Z,56.79
2022-11-27T03:02:42.917Z,56.69
2022-11-27T03:05:12.407Z,56.69
2022-11-27T03:07:41.320Z,56.81
2022-11-27T03:10:13.746Z,56.78
2022-11-27T03:12:41.614Z,57.40
2022-11-27T03:15:10.408Z,56.62
2022-11-27T03:17:47.583Z,56.75
2022-11-27T03:20:17.490Z,56.59
2022-11-27T03:22:46.811Z,56.76
2022-11-27T03:25:16.587Z,56.77
2022-11-27T03:27:49.080Z,56.99
2022-11-27T03:30:17.229Z,57.05
2022-11-27T03:32:46.448Z,56.92
2022-11-27T03:35:15.491Z,56.41
2022-11-27T03:37:43.310Z,56.82
2022-11-27T03:40:11.924Z,56.67
2022-11-27T03:42:45.902Z,56.62
2022-11-27T03:45:16.377Z,56.92
2022-11-27T03:47:52.533Z,56.52
2022-11-27T03:50:23.766Z,56.55
2022-11-27T03:52:54.753Z,56.64
2022-11-27T03:55:24.518Z,56.82
2022-11-27T03:57:54.637Z,56.36
2022-11-27T04:00:22.616Z,56.04
2022-11-27T04:02:53.333Z,56.49
2022-11-27T04:05:21.599Z,55.87
2022-11-27T04:07:49.626Z,56.00
2022-11-27T04:10:17.470Z,55.98
2022-11-27T04:12:45.124Z,55.87
2022-11-27T04:15:13.161Z,55.64
2022-11-27T04:17:42.128Z,55.42
2022-11-27T04:20:13.440Z,55.41
2022-11-27T04:22:41.235Z,55.35
2022-11-27T04:25:09.852Z,55.04
2022-11-27T04:27:37.628Z,55.23
2022-11-27T04:30:05.938Z,55.14
2022-11-27T04:32:33.639Z,55.17
2022-11-27T04:35:01.862Z,54.70
2022-11-27T04:37:31.175Z,55.13
2022-11-27T04:39:59.088Z,55.65
2022-11-27T04:42:26.938Z,54.85
2022-11-27T04:44:54.713Z,54.60
2022-11-27T04:47:24.594Z,54.42
2022-11-27T04:49:55.519Z,54.32
2022-11-27T04:52:23.371Z,54.67
2022-11-27T04:54:59.643Z,54.43
2022-11-27T04:57:28.043Z,54.15
2022-11-27T04:59:55.909Z,54.17
2022-11-27T05:02:23.755Z,54.31
2022-11-27T05:04:51.637Z,54.01
2022-11-27T05:07:19.492Z,53.82
2022-11-27T05:09:47.295Z,53.91
2022-11-27T05:12:16.429Z,54.24
2022-11-27T05:14:44.246Z,53.81
2022-11-27T05:17:12.084Z,54.28
2022-11-27T05:19:39.751Z,53.29
2022-11-27T05:22:07.448Z,54.30
2022-11-27T05:24:35.216Z,53.90
2022-11-27T05:27:03.037Z,53.65
2022-11-27T05:29:32.497Z,53.49
2022-11-27T05:32:00.192Z,53.85
2022-11-27T05:34:28.018Z,53.06
2022-11-27T05:36:56.094Z,53.00
2022-11-27T05:39:23.925Z,53.18
2022-11-27T05:41:51.862Z,53.67
2022-11-27T05:44:19.640Z,53.54
2022-11-27T05:46:48.922Z,53.55
2022-11-27T05:49:16.997Z,53.80
2022-11-27T05:51:50.614Z,53.21
2022-11-27T05:54:19.002Z,53.32
2022-11-27T05:56:46.897Z,53.38
2022-11-27T05:59:15.055Z,53.18
2022-11-27T06:01:43.295Z,53.82
2022-11-27T06:04:12.476Z,53.13
2022-11-27T06:06:40.223Z,53.41
2022-11-27T06:09:12.739Z,53.73
2022-11-27T06:11:41.619Z,53.08
2022-11-27T06:15:07.328Z,53.13
2022-11-27T06:17:35.170Z,53.32
2022-11-27T06:20:04.599Z,53.66
2022-11-27T06:22:32.424Z,53.40
2022-11-27T06:25:00.162Z,53.41
2022-11-27T06:27:27.955Z,53.59
2022-11-27T06:29:55.675Z,53.63
2022-11-27T06:32:23.601Z,52.98
2022-11-27T06:34:51.389Z,53.52
2022-11-27T06:37:20.523Z,53.35
2022-11-27T06:39:49.232Z,53.22
2022-11-27T06:42:17.005Z,53.28
2022-11-27T06:44:44.785Z,53.75
2022-11-27T06:47:12.447Z,53.30
2022-11-27T06:49:40.127Z,53.29
2022-11-27T06:54:38.637Z,53.27
2022-11-27T06:57:06.440Z,53.65
2022-11-27T06:59:34.442Z,53.80
2022-11-27T07:02:02.233Z,53.70
2022-11-27T07:04:30.019Z,53.61
2022-11-27T07:06:58.708Z,53.46
2022-11-27T07:09:28.463Z,53.75
2022-11-27T07:11:57.467Z,53.38
2022-11-27T07:14:25.231Z,54.12
2022-11-27T07:16:52.907Z,53.58
2022-11-27T07:19:21.205Z,53.07
2022-11-27T07:21:48.889Z,53.15
2022-11-27T07:24:16.720Z,53.34
2022-11-27T07:26:44.400Z,53.13
2022-11-27T07:29:13.815Z,53.91
2022-11-27T07:31:41.936Z,53.93
2022-11-27T07:34:14.986Z,53.48
2022-11-27T07:36:44.822Z,53.66
2022-11-27T07:39:12.821Z,53.66
2022-11-27T07:41:40.446Z,53.31
2022-11-27T07:44:08.176Z,52.83
2022-11-27T07:46:37.191Z,52.64
2022-11-27T07:49:05.051Z,53.64
2022-11-27T07:51:32.699Z,53.13
2022-11-27T07:54:00.714Z,53.72
2022-11-27T07:56:28.493Z,53.79
2022-11-27T07:58:57.341Z,53.04
2022-11-27T08:01:25.011Z,53.53
2022-11-27T08:03:54.359Z,52.47
2022-11-27T08:06:22.920Z,53.01
2022-11-27T08:08:50.892Z,52.93
2022-11-27T08:11:19.672Z,53.54
2022-11-27T08:13:47.517Z,52.86
2022-11-27T08:16:15.326Z,51.69
2022-11-27T08:18:43.036Z,52.01
2022-11-27T08:21:12.255Z,51.47
2022-11-27T08:23:39.967Z,51.85
2022-11-27T08:26:08.080Z,50.88
2022-11-27T08:28:35.743Z,50.76
2022-11-27T08:31:03.999Z,51.69
2022-11-27T08:33:31.745Z,50.70
2022-11-27T08:35:59.507Z,51.13
2022-11-27T08:38:28.679Z,50.27
2022-11-27T08:40:57.280Z,50.25
2022-11-27T08:43:25.121Z,51.02
2022-11-27T08:45:52.950Z,50.21
2022-11-27T08:48:21.221Z,50.44
2022-11-27T08:50:49.085Z,50.28
2022-11-27T08:53:16.962Z,49.97
2022-11-27T08:55:46.372Z,49.82
2022-11-27T08:58:14.023Z,49.18
2022-11-27T09:00:41.916Z,49.42
2022-11-27T09:03:11.927Z,48.50
2022-11-27T09:05:42.895Z,48.64
2022-11-27T09:08:12.481Z,48.95
2022-11-27T09:10:40.460Z,48.69
2022-11-27T09:13:09.409Z,47.83
2022-11-27T09:15:37.025Z,48.15
2022-11-27T09:18:04.762Z,47.89
2022-11-27T09:21:17.187Z,47.92
2022-11-27T09:24:11.211Z,47.61
2022-11-27T09:26:39.283Z,47.74
2022-11-27T09:29:09.515Z,47.66
2022-11-27T09:31:37.474Z,47.37
2022-11-27T09:34:05.708Z,47.13
2022-11-27T09:36:36.852Z,47.07
2022-11-27T09:39:05.159Z,47.56
2022-11-27T09:41:43.125Z,47.36
2022-11-27T09:44:28.594Z,47.19
2022-11-27T09:46:57.020Z,47.95
2022-11-27T09:49:27.822Z,48.30
2022-11-27T09:51:57.672Z,47.61
2022-11-27T09:54:27.099Z,47.85
2022-11-27T09:56:55.870Z,47.94
2022-11-27T09:59:26.518Z,47.78
2022-11-27T10:01:54.496Z,47.83
2022-11-27T10:04:23.227Z,47.15
2022-11-27T10:07:04.214Z,47.01
2022-11-27T10:09:36.876Z,46.89
2022-11-27T10:12:07.708Z,46.75
2022-11-27T10:14:43.745Z,46.76
2022-11-27T10:17:12.431Z,46.22
2022-11-27T10:19:43.905Z,45.96
2022-11-27T10:22:31.298Z,45.25
2022-11-27T10:25:05.734Z,45.28
2022-11-27T10:27:36.602Z,45.22
2022-11-27T10:30:14.271Z,44.62
2022-11-27T10:32:57.520Z,43.84
2022-11-27T10:35:25.669Z,42.72
2022-11-27T10:37:54.207Z,42.53
2022-11-27T10:40:24.451Z,42.21
2022-11-27T10:42:55.584Z,42.55
2022-11-27T10:45:26.165Z,41.87
2022-11-27T10:47:53.883Z,41.95
2022-11-27T10:50:21.844Z,41.50
2022-11-27T10:52:52.788Z,41.22
2022-11-27T10:55:26.518Z,40.88
2022-11-27T10:58:03.641Z,40.82
2022-11-27T11:00:32.601Z,40.96
2022-11-27T11:03:01.319Z,40.81
2022-11-27T11:08:17.753Z,40.72
2022-11-27T11:10:46.649Z,41.55
2022-11-27T11:13:19.733Z,40.74
2022-11-27T11:15:52.081Z,41.24
2022-11-27T11:18:19.966Z,40.92
2022-11-27T11:20:51.673Z,41.18
2022-11-27T11:23:34.847Z,41.31
2022-11-27T11:26:04.884Z,41.60
2022-11-27T11:28:39.217Z,42.23
2022-11-27T11:31:10.378Z,42.27
2022-11-27T11:33:40.934Z,42.33
2022-11-27T11:36:10.405Z,42.17
2022-11-27T11:38:39.490Z,42.48
2022-11-27T11:41:07.827Z,42.44
2022-11-27T11:43:36.485Z,42.43
2022-11-27T11:46:17.065Z,42.58
2022-11-27T11:49:10.412Z,42.62
2022-11-27T11:52:09.596Z,42.52
2022-11-27T11:55:06.804Z,42.68
2022-11-27T11:58:30.244Z,42.32
2022-11-27T12:01:25.881Z,42.53
2022-11-27T12:04:06.809Z,42.93
2022-11-27T12:06:51.400Z,42.67
2022-11-27T12:09:34.783Z,43.02
2022-11-27T12:12:05.012Z,43.13
2022-11-27T12:14:42.395Z,43.23
2022-11-27T12:17:42.730Z,43.59
2022-11-27T12:20:43.172Z,43.21
2022-11-27T12:23:32.996Z,43.36
2022-11-27T12:26:07.431Z,43.25
2022-11-27T12:28:59.154Z,42.84
2022-11-27T12:31:56.596Z,43.89
2022-11-27T12:34:27.758Z,45.03
2022-11-27T12:37:11.102Z,45.56
2022-11-27T12:40:03.310Z,45.62
2022-11-27T12:42:33.768Z,44.85
2022-11-27T12:45:02.380Z,45.00
2022-11-27T12:47:38.677Z,45.04
2022-11-27T12:50:10.150Z,44.36
2022-11-27T12:52:41.873Z,44.49
2022-11-27T12:55:12.312Z,43.96
2022-11-27T12:57:41.360Z,44.03
2022-11-27T13:00:15.915Z,43.54
2022-11-27T13:02:46.667Z,43.55
2022-11-27T13:05:16.653Z,43.38
2022-11-27T13:07:49.124Z,43.26
2022-11-27T13:10:22.540Z,43.20
2022-11-27T13:12:53.002Z,42.86
2022-11-27T13:15:25.691Z,42.10
2022-11-27T13:17:58.013Z,41.97
2022-11-27T13:20:29.747Z,41.74
2022-11-27T13:22:59.297Z,41.38
2022-11-27T13:25:27.865Z,41.32
2022-11-27T13:27:56.030Z,40.93
2022-11-27T13:30:24.994Z,41.00
2022-11-27T13:32:55.317Z,40.90
2022-11-27T13:35:26.983Z,40.87
2022-11-27T13:38:00.906Z,40.88
2022-11-27T13:40:30.289Z,40.67
2022-11-27T13:43:05.864Z,40.53
2022-11-27T13:45:35.549Z,41.06
2022-11-27T13:48:05.387Z,40.51
2022-11-27T13:50:33.403Z,40.89
2022-11-27T13:53:04.637Z,40.65
2022-11-27T13:55:33.936Z,40.38
2022-11-27T13:58:03.871Z,40.33
2022-11-27T14:00:33.831Z,40.33
2022-11-27T14:03:01.981Z,40.25
2022-11-27T14:05:38.164Z,40.74
2022-11-27T14:08:19.254Z,40.29
2022-11-27T14:10:52.464Z,40.49
2022-11-27T14:13:23.565Z,40.18
2022-11-27T14:16:02.716Z,40.32
2022-11-27T14:18:31.486Z,40.69
2022-11-27T14:21:01.205Z,40.57
2022-11-27T14:23:31.773Z,40.18
2022-11-27T14:26:04.557Z,40.57
2022-11-27T14:28:32.747Z,40.04
2022-11-27T14:31:01.210Z,40.38
2022-11-27T14:33:31.185Z,40.75
2022-11-27T14:36:00.697Z,40.34
2022-11-27T14:38:29.318Z,40.77
2022-11-27T14:41:10.292Z,40.30
2022-11-27T14:43:38.333Z,40.15
2022-11-27T14:46:08.322Z,40.21
2022-11-27T14:48:43.856Z,40.70
2022-11-27T14:51:15.820Z,40.94
2022-11-27T14:53:43.763Z,41.78
2022-11-27T14:56:13.385Z,41.41
2022-11-27T14:58:42.661Z,41.82
2022-11-27T15:01:23.191Z,42.21
2022-11-27T15:03:57.685Z,42.66
2022-11-27T15:06:26.582Z,43.04
2022-11-27T15:09:23.681Z,43.11
2022-11-27T15:11:56.003Z,43.49
2022-11-27T15:14:24.413Z,43.32
2022-11-27T15:16:53.302Z,43.33
2022-11-27T15:19:32.081Z,43.50
2022-11-27T15:22:01.113Z,43.30
2022-11-27T15:24:32.268Z,43.19
2022-11-27T15:27:20.548Z,42.77
2022-11-27T15:30:10.927Z,43.00
2022-11-27T15:32:52.617Z,43.24
2022-11-27T15:35:29.354Z,43.67
2022-11-27T15:37:58.200Z,43.60
2022-11-27T15:40:31.137Z,43.41
2022-11-27T15:43:00.579Z,43.84
2022-11-27T15:45:32.432Z,43.44
2022-11-27T15:48:02.184Z,43.49
2022-11-27T15:50:33.457Z,43.62
2022-11-27T15:53:02.694Z,43.71
2022-11-27T15:55:33.559Z,44.34
2022-11-27T15:58:04.461Z,44.58
2022-11-27T16:00:32.448Z,44.48
2022-11-27T16:03:00.291Z,44.75
2022-11-27T16:05:28.654Z,44.60
2022-11-27T16:07:57.256Z,45.23
2022-11-27T16:10:25.486Z,44.96
2022-11-27T16:12:55.446Z,44.62
2022-11-27T16:15:28.840Z,45.55
2022-11-27T16:18:00.611Z,45.90
2022-11-27T16:20:28.859Z,45.54
2022-11-27T16:22:56.794Z,45.84
2022-11-27T16:25:25.440Z,45.46
2022-11-27T16:27:57.984Z,45.34
2022-11-27T16:30:31.035Z,45.62
2022-11-27T16:32:59.816Z,45.08
2022-11-27T16:35:37.395Z,45.45
2022-11-27T16:38:05.797Z,45.09
2022-11-27T16:40:35.031Z,45.68
2022-11-27T16:43:03.271Z,45.12
2022-11-27T16:45:33.032Z,45.57
2022-11-27T16:48:01.935Z,45.65
2022-11-27T16:50:30.806Z,45.44
2022-11-27T16:52:58.813Z,45.60
2022-11-27T16:55:27.523Z,45.56
2022-11-27T16:57:56.421Z,45.26
2022-11-27T17:00:25.084Z,45.56
2022-11-27T17:02:55.225Z,45.70
2022-11-27T17:05:23.581Z,45.35
2022-11-27T17:07:52.944Z,45.22
2022-11-27T17:10:21.064Z,45.50
2022-11-27T17:12:49.075Z,45.72
2022-11-27T17:15:17.321Z,45.94
2022-11-27T17:17:45.275Z,45.59
2022-11-27T17:20:14.937Z,45.35
2022-11-27T17:22:42.796Z,45.23
2022-11-27T17:25:11.312Z,45.33
2022-11-27T17:27:39.533Z,45.61
2022-11-27T17:30:09.427Z,45.60
2022-11-27T17:32:37.886Z,45.42
2022-11-27T17:35:07.018Z,45.39
2022-11-27T17:37:36.659Z,44.91
2022-11-27T17:40:04.931Z,44.88
2022-11-27T17:42:33.230Z,44.87
2022-11-27T17:45:01.723Z,45.25
2022-11-27T17:47:30.065Z,44.90
2022-11-27T17:50:10.720Z,45.20
2022-11-27T17:52:40.924Z,44.71
2022-11-27T17:55:10.530Z,44.79
2022-11-27T17:57:38.758Z,45.04
2022-11-27T18:00:08.225Z,44.41
2022-11-27T18:02:36.438Z,44.72
2022-11-27T18:05:04.452Z,44.28
2022-11-27T18:07:32.765Z,44.31
2022-11-27T18:10:02.383Z,43.90
2022-11-27T18:12:30.981Z,44.25
2022-11-27T18:15:01.407Z,43.69
2022-11-27T18:17:30.042Z,43.57
2022-11-27T18:19:59.230Z,44.35
2022-11-27T18:22:27.280Z,43.81
2022-11-27T18:24:56.378Z,43.59
2022-11-27T18:27:26.199Z,44.11
2022-11-27T18:29:55.032Z,43.53
2022-11-27T18:32:23.247Z,43.82
2022-11-27T18:34:54.676Z,43.52
2022-11-27T18:37:26.561Z,43.24
2022-11-27T18:39:56.681Z,43.25
2022-11-27T18:42:34.627Z,43.74
2022-11-27T18:45:25.228Z,43.24
2022-11-27T18:47:54.352Z,43.54
2022-11-27T18:50:26.928Z,44.29
2022-11-27T18:53:27.725Z,44.62
2022-11-27T18:56:06.929Z,45.28
2022-11-27T18:59:17.883Z,45.90
2022-11-27T19:04:20.711Z,46.34
2022-11-27T19:06:48.340Z,46.75
2022-11-27T19:09:16.046Z,46.49
2022-11-27T19:11:43.821Z,46.61
2022-11-27T19:14:11.462Z,46.13
2022-11-27T19:16:41.885Z,45.86
2022-11-27T19:19:34.599Z,46.20
2022-11-27T19:21:59.195Z,45.92
2022-11-27T19:24:26.778Z,45.96
2022-11-27T19:26:54.448Z,45.76
2022-11-27T19:29:22.116Z,45.94
2022-11-27T19:31:49.868Z,45.77
2022-11-27T19:34:17.663Z,45.89
2022-11-27T19:36:45.348Z,45.63
2022-11-27T19:39:15.240Z,45.76
2022-11-27T19:41:43.243Z,45.82
2022-11-27T19:44:11.539Z,45.93
2022-11-27T19:46:39.192Z,45.77
2022-11-27T19:49:08.064Z,45.70
2022-11-27T19:51:36.733Z,46.14
2022-11-27T19:54:09.887Z,46.10
2022-11-27T19:56:40.012Z,46.31
2022-11-27T19:59:07.953Z,46.67
2022-11-27T20:01:35.675Z,46.99
2022-11-27T20:04:03.923Z,46.57
2022-11-27T20:06:31.570Z,46.73
2022-11-27T20:09:00.648Z,46.96
2022-11-27T20:11:34.072Z,47.05
2022-11-27T20:14:10.217Z,47.14
2022-11-27T20:16:38.135Z,47.51
2022-11-27T20:19:06.526Z,47.13
2022-11-27T20:21:34.159Z,46.91
2022-11-27T20:24:02.659Z,46.93
2022-11-27T20:26:30.546Z,46.92
2022-11-27T20:28:58.234Z,47.07
2022-11-27T20:31:29.135Z,47.07
2022-11-27T20:33:58.459Z,47.19
2022-11-27T20:36:26.104Z,46.85
2022-11-27T20:38:55.441Z,47.17
2022-11-27T20:41:23.197Z,47.31
2022-11-27T20:43:51.585Z,46.82
2022-11-27T20:46:19.293Z,47.24
2022-11-27T20:48:48.537Z,47.40
2022-11-27T20:51:17.908Z,46.92
2022-11-27T20:53:46.360Z,47.09
2022-11-27T20:56:15.336Z,47.63
2022-11-27T20:58:44.020Z,47.03
2022-11-27T21:01:15.756Z,47.36
2022-11-27T21:03:58.032Z,47.41
2022-11-27T21:06:27.977Z,47.36
2022-11-27T21:08:55.694Z,47.25
2022-11-27T21:11:25.078Z,47.08
2022-11-27T21:13:53.102Z,47.49
2022-11-27T21:16:20.823Z,47.73
2022-11-27T21:18:48.547Z,47.51
2022-11-27T21:21:16.173Z,47.33
2022-11-27T21:23:45.183Z,47.06
2022-11-27T21:26:14.014Z,47.20
2022-11-27T21:28:42.692Z,47.68
2022-11-27T21:31:11.246Z,47.92
2022-11-27T21:33:38.834Z,47.36
2022-11-27T21:36:06.850Z,47.84
2022-11-27T21:38:34.775Z,47.95
2022-11-27T21:41:05.242Z,47.62
2022-11-27T21:43:32.925Z,47.81
2022-11-27T21:46:06.848Z,48.52
2022-11-27T21:48:34.480Z,48.57
2022-11-27T21:51:02.538Z,48.87
2022-11-27T21:53:30.489Z,48.08
2022-11-27T21:55:59.957Z,48.74
2022-11-27T21:58:33.953Z,48.84
2022-11-27T22:01:01.683Z,48.90
2022-11-27T22:03:29.359Z,48.94
2022-11-27T22:06:01.996Z,49.25
2022-11-27T22:08:29.677Z,48.86
2022-11-27T22:10:57.416Z,48.79
2022-11-27T22:13:24.987Z,49.60
2022-11-27T22:15:54.099Z,49.26
2022-11-27T22:18:21.717Z,49.41
2022-11-27T22:20:49.501Z,49.56
2022-11-27T22:23:17.916Z,49.18
2022-11-27T22:25:45.903Z,49.59
2022-11-27T22:28:13.482Z,49.44
2022-11-27T22:30:41.656Z,48.83
2022-11-27T22:33:10.711Z,49.03
2022-11-27T22:35:38.555Z,48.88
2022-11-27T22:38:06.178Z,48.79
2022-11-27T22:40:35.119Z,49.16
2022-11-27T22:43:02.714Z,49.08
2022-11-27T22:45:30.531Z,49.08
2022-11-27T22:47:58.143Z,49.58
2022-11-27T22:50:27.293Z,49.85
2022-11-27T22:52:58.255Z,50.64
2022-11-27T22:55:26.175Z,50.61
2022-11-27T22:57:53.811Z,51.21
2022-11-27T23:00:21.979Z,51.81
2022-11-27T23:02:49.831Z,51.84
2022-11-27T23:05:17.480Z,52.07
2022-11-27T23:07:46.602Z,52.40
2022-11-27T23:10:14.251Z,53.19
2022-11-27T23:12:41.979Z,53.83
2022-11-27T23:15:10.259Z,54.13
2022-11-27T23:17:40.872Z,55.90
2022-11-27T23:20:09.650Z,55.98
2022-11-27T23:22:37.838Z,56.95
2022-11-27T23:25:07.708Z,57.40
2022-11-27T23:27:35.483Z,58.45
2022-11-27T23:30:03.142Z,58.47
2022-11-27T23:32:30.998Z,59.34
2022-11-27T23:34:58.686Z,59.43
2022-11-27T23:37:26.494Z,60.36
2022-11-27T23:39:54.097Z,60.65
2022-11-27T23:42:23.501Z,61.48
2022-11-27T23:44:51.087Z,60.54
2022-11-27T23:47:18.693Z,61.06
2022-11-27T23:49:46.395Z,61.09
2022-11-27T23:52:17.155Z,62.38
2022-11-27T23:54:45.220Z,61.69
2022-11-27T23:57:12.837Z,62.07
2022-11-27T23:59:41.976Z,62.90
